Time;durP1;ratioP1;P1;durP2;ratioP2;P2;SDS_P1;SDS_P2;PMS_P1;PMS_P2;Temp;Humidity;BMP_temperature;BMP_pressure;BME280_temperature;BME280_humidity;BME280_pressure;Samples;Min_cycle;Max_cycle;Signal;HPM_P1;HPM_P2
2023/12/02 00:00:49;;;;;;;8.97;6.07;;;1.40;99.90;;;;;;5041876;28;20208;-72
2023/12/02 00:03:17;;;;;;;8.50;5.93;;;1.40;99.90;;;;;;5044015;28;20177;-70
2023/12/02 00:05:45;;;;;;;8.93;6.17;;;1.40;99.90;;;;;;5041578;28;20181;-69
2023/12/02 00:08:13;;;;;;;8.50;5.80;;;1.40;99.90;;;;;;5040888;28;20190;-70
2023/12/02 00:10:38;;;;;;;7.97;5.70;;;1.40;99.90;;;;;;5035253;28;20182;-70
2023/12/02 00:13:06;;;;;;;8.53;6.30;;;1.40;99.90;;;;;;5039939;28;20213;-70
2023/12/02 00:15:32;;;;;;;9.73;5.83;;;1.40;99.90;;;;;;5041484;28;20197;-69
2023/12/02 00:18:00;;;;;;;7.17;5.30;;;1.40;99.90;;;;;;5049184;28;20177;-69
2023/12/02 00:20:26;;;;;;;6.73;5.17;;;1.40;99.90;;;;;;5041883;28;20209;-69
2023/12/02 00:22:51;;;;;;;7.23;5.30;;;1.30;99.90;;;;;;5037914;28;20192;-69
2023/12/02 00:25:19;;;;;;;7.60;5.33;;;1.30;99.90;;;;;;5021408;28;20166;-68
2023/12/02 00:27:45;;;;;;;8.73;6.10;;;1.30;99.90;;;;;;5027460;28;20178;-69
2023/12/02 00:30:13;;;;;;;8.47;5.70;;;1.30;99.90;;;;;;5055165;28;20192;-69
2023/12/02 00:32:41;;;;;;;8.03;5.77;;;1.30;99.90;;;;;;5034926;28;20201;-70
2023/12/02 00:35:07;;;;;;;8.43;5.67;;;1.30;99.90;;;;;;5029073;28;20169;-70
2023/12/02 00:37:33;;;;;;;7.63;5.37;;;1.30;99.90;;;;;;5041058;28;20185;-70
2023/12/02 00:39:59;;;;;;;7.27;5.10;;;1.30;99.90;;;;;;5040604;28;20208;-70
2023/12/02 00:42:30;;;;;;;6.80;5.00;;;1.30;99.90;;;;;;5046371;28;20177;-70
2023/12/02 00:44:57;;;;;;;8.13;5.40;;;1.20;99.90;;;;;;5034680;28;20189;-69
2023/12/02 00:47:28;;;;;;;8.20;5.57;;;1.20;99.90;;;;;;5024184;28;20197;-70
2023/12/02 00:49:53;;;;;;;7.27;5.40;;;1.20;99.90;;;;;;5021050;28;20198;-70
2023/12/02 00:52:19;;;;;;;7.33;5.30;;;1.20;99.90;;;;;;5026043;28;20234;-70
2023/12/02 00:54:46;;;;;;;7.43;5.63;;;1.20;99.90;;;;;;5037390;28;20196;-70
2023/12/02 00:57:14;;;;;;;8.33;5.70;;;1.20;99.90;;;;;;5029006;28;20174;-70
2023/12/02 00:59:40;;;;;;;7.20;5.10;;;1.20;99.90;;;;;;5042840;28;20201;-70
2023/12/02 01:02:06;;;;;;;7.07;5.20;;;1.20;99.90;;;;;;5040504;28;20189;-70
2023/12/02 01:04:32;;;;;;;6.97;5.30;;;1.30;99.90;;;;;;5040615;28;20181;-70
2023/12/02 01:07:00;;;;;;;7.33;5.20;;;1.20;99.90;;;;;;5040468;28;20213;-70
2023/12/02 01:09:26;;;;;;;7.07;5.37;;;1.20;99.90;;;;;;5048288;28;20197;-70
2023/12/02 01:11:54;;;;;;;8.00;5.60;;;1.20;99.90;;;;;;5045259;28;20247;-70
2023/12/02 01:14:22;;;;;;;7.33;5.00;;;1.20;99.90;;;;;;5044100;28;20188;-71
2023/12/02 01:16:47;;;;;;;7.60;5.30;;;1.20;99.90;;;;;;5039685;28;20174;-70
2023/12/02 01:19:15;;;;;;;7.57;5.63;;;1.20;99.90;;;;;;5033357;28;20203;-71
2023/12/02 01:21:41;;;;;;;7.13;5.47;;;1.20;99.90;;;;;;5031466;28;20208;-70
2023/12/02 01:24:09;;;;;;;6.77;5.03;;;1.10;99.90;;;;;;5031959;28;20185;-70
2023/12/02 01:26:35;;;;;;;6.70;4.80;;;1.20;99.90;;;;;;5038816;28;20301;-71
2023/12/02 01:29:00;;;;;;;6.90;5.13;;;1.20;99.90;;;;;;5039664;28;20280;-70
2023/12/02 01:31:28;;;;;;;6.30;4.83;;;1.10;99.90;;;;;;5040574;28;20173;-70
2023/12/02 01:33:56;;;;;;;6.30;4.70;;;1.10;99.90;;;;;;5040553;28;20181;-70
2023/12/02 01:36:22;;;;;;;9.47;5.57;;;1.10;99.90;;;;;;5040859;28;20190;-70
2023/12/02 01:38:47;;;;;;;7.53;4.93;;;1.10;99.90;;;;;;5054591;28;20220;-70
2023/12/02 01:41:13;;;;;;;7.57;5.33;;;1.10;99.90;;;;;;5039635;28;20192;-70
2023/12/02 01:43:39;;;;;;;7.10;5.03;;;1.10;99.90;;;;;;5039768;28;20185;-70
2023/12/02 01:46:05;;;;;;;8.10;5.27;;;1.10;99.90;;;;;;5040079;28;20193;-70
2023/12/02 01:48:36;;;;;;;7.97;4.70;;;1.10;99.90;;;;;;5043863;28;20284;-72
2023/12/02 01:51:03;;;;;;;6.50;4.53;;;1.10;99.90;;;;;;5067893;28;20216;-70
2023/12/02 01:53:29;;;;;;;6.70;4.80;;;1.00;99.90;;;;;;5027408;28;20177;-70
2023/12/02 01:55:57;;;;;;;6.23;4.67;;;1.00;99.90;;;;;;5046456;28;20244;-70
2023/12/02 01:58:23;;;;;;;6.23;4.90;;;1.00;99.90;;;;;;5019998;28;20208;-70
2023/12/02 02:00:48;;;;;;;6.60;4.77;;;1.00;99.90;;;;;;5022776;28;20178;-70
2023/12/02 02:03:14;;;;;;;6.67;5.10;;;1.00;99.90;;;;;;5035469;28;20186;-71
2023/12/02 02:05:40;;;;;;;7.23;5.37;;;1.00;99.90;;;;;;5039481;28;20205;-70
2023/12/02 02:08:08;;;;;;;6.70;5.20;;;1.00;99.90;;;;;;5038349;28;20201;-70
2023/12/02 02:10:35;;;;;;;6.77;4.90;;;1.00;99.90;;;;;;5039636;28;20178;-71
2023/12/02 02:13:01;;;;;;;7.27;5.27;;;1.00;99.90;;;;;;5037106;28;20170;-72
2023/12/02 02:15:27;;;;;;;7.33;5.13;;;1.00;99.90;;;;;;5038788;28;20200;-72
2023/12/02 02:17:52;;;;;;;7.53;5.30;;;1.00;99.90;;;;;;5032823;28;20200;-70
2023/12/02 02:20:18;;;;;;;6.67;4.97;;;1.00;99.90;;;;;;5038992;28;20173;-70
2023/12/02 02:22:43;;;;;;;7.33;4.93;;;0.90;99.90;;;;;;5038874;28;20205;-71
2023/12/02 02:25:09;;;;;;;7.47;5.17;;;0.90;99.90;;;;;;5034800;28;20188;-70
2023/12/02 02:27:35;;;;;;;6.43;4.87;;;0.90;99.90;;;;;;5037211;28;20186;-71
2023/12/02 02:30:01;;;;;;;7.03;5.23;;;0.90;99.90;;;;;;5046501;28;20177;-71
2023/12/02 02:32:26;;;;;;;6.50;4.63;;;0.90;99.90;;;;;;5070171;28;20379;-71
2023/12/02 02:34:58;;;;;;;6.23;4.87;;;0.90;99.90;;;;;;5039963;28;20165;-71
2023/12/02 02:37:26;;;;;;;7.30;5.20;;;0.90;99.90;;;;;;5044468;28;20247;-71
2023/12/02 02:39:52;;;;;;;6.60;5.00;;;0.90;99.90;;;;;;5040096;28;20202;-71
2023/12/02 02:42:20;;;;;;;7.27;5.37;;;0.90;99.90;;;;;;5044727;28;20361;-71
2023/12/02 02:44:50;;;;;;;7.07;4.93;;;0.90;99.90;;;;;;5053532;28;20271;-71
2023/12/02 02:47:18;;;;;;;7.53;5.40;;;0.90;99.90;;;;;;5038996;28;20180;-71
2023/12/02 02:49:44;;;;;;;6.67;4.73;;;0.90;99.90;;;;;;5042729;28;20237;-71
2023/12/02 02:52:14;;;;;;;7.30;4.97;;;0.90;99.90;;;;;;5040107;28;20211;-71
2023/12/02 02:54:39;;;;;;;6.77;5.17;;;0.90;99.90;;;;;;5026178;28;20174;-71
2023/12/02 02:57:05;;;;;;;6.73;5.20;;;0.90;99.90;;;;;;5033392;28;20205;-71
2023/12/02 02:59:33;;;;;;;6.13;4.83;;;0.90;99.90;;;;;;5051526;28;20173;-71
2023/12/02 03:02:01;;;;;;;7.80;5.10;;;0.90;99.90;;;;;;5042745;28;20196;-71
2023/12/02 03:04:26;;;;;;;6.57;5.03;;;0.90;99.90;;;;;;5038179;28;20173;-71
2023/12/02 03:06:54;;;;;;;7.53;5.27;;;0.90;99.90;;;;;;5038447;28;20230;-71
2023/12/02 03:09:22;;;;;;;8.03;5.90;;;1.00;99.90;;;;;;5034419;28;20213;-73
2023/12/02 03:11:49;;;;;;;6.43;5.23;;;1.00;99.90;;;;;;5064981;28;20701;-70
2023/12/02 03:14:17;;;;;;;7.27;5.40;;;1.00;99.90;;;;;;5038193;28;20185;-70
2023/12/02 03:16:43;;;;;;;6.83;4.80;;;1.00;99.90;;;;;;5037721;28;20192;-69
2023/12/02 03:19:08;;;;;;;6.43;4.87;;;1.00;99.90;;;;;;5034607;28;20178;-70
2023/12/02 03:21:34;;;;;;;6.73;5.00;;;1.00;99.90;;;;;;5040446;28;20201;-70
2023/12/02 03:23:59;;;;;;;6.83;4.77;;;0.90;99.90;;;;;;5026306;28;20257;-69
2023/12/02 03:26:26;;;;;;;6.10;4.57;;;0.90;99.90;;;;;;5037470;28;20173;-69
2023/12/02 03:28:52;;;;;;;6.73;4.70;;;0.90;99.90;;;;;;5033567;28;20304;-69
2023/12/02 03:31:18;;;;;;;7.17;5.10;;;0.90;99.90;;;;;;5030425;28;20208;-70
2023/12/02 03:33:44;;;;;;;5.83;4.13;;;0.80;99.90;;;;;;5038471;28;20196;-69
2023/12/02 03:36:10;;;;;;;5.87;4.03;;;0.90;99.90;;;;;;5036068;28;20189;-70
2023/12/02 03:38:36;;;;;;;6.40;4.83;;;0.80;99.90;;;;;;5038168;28;20185;-70
2023/12/02 03:41:02;;;;;;;5.27;4.33;;;0.80;99.90;;;;;;5036732;28;20197;-70
2023/12/02 03:43:28;;;;;;;5.33;4.23;;;0.80;99.90;;;;;;5037732;28;20177;-70
2023/12/02 03:45:59;;;;;;;5.27;4.13;;;0.80;99.90;;;;;;5022735;28;20185;-68
2023/12/02 03:48:25;;;;;;;6.00;4.33;;;0.80;99.90;;;;;;5028565;28;20201;-70
2023/12/02 03:50:53;;;;;;;5.83;4.27;;;0.80;99.90;;;;;;5037033;28;20232;-70
2023/12/02 03:53:18;;;;;;;5.40;4.13;;;0.80;99.90;;;;;;5042040;28;20173;-69
2023/12/02 03:55:53;;;;;;;7.23;4.50;;;0.80;99.90;;;;;;5037561;28;20178;-69
2023/12/02 03:58:21;;;;;;;4.63;3.90;;;0.80;99.90;;;;;;5064910;28;20192;-71
2023/12/02 04:00:46;;;;;;;5.57;4.40;;;0.80;99.90;;;;;;5035884;28;20193;-69
2023/12/02 04:03:12;;;;;;;6.33;4.40;;;0.80;99.90;;;;;;5049515;28;20178;-70
2023/12/02 04:05:41;;;;;;;6.20;4.40;;;0.80;99.90;;;;;;5035362;28;20224;-70
2023/12/02 04:08:07;;;;;;;5.80;4.10;;;0.70;99.90;;;;;;5035924;28;20232;-69
2023/12/02 04:10:33;;;;;;;6.60;4.40;;;0.70;99.90;;;;;;5038542;28;20186;-70
2023/12/02 04:13:00;;;;;;;5.47;4.30;;;0.70;99.90;;;;;;5038324;28;20208;-69
2023/12/02 04:15:28;;;;;;;6.07;4.30;;;0.70;99.90;;;;;;5066958;28;20184;-70
2023/12/02 04:17:54;;;;;;;5.23;3.87;;;0.70;99.90;;;;;;5032271;28;20169;-70
2023/12/02 04:20:21;;;;;;;5.53;4.13;;;0.70;99.90;;;;;;5035391;28;20258;-70
2023/12/02 04:22:53;;;;;;;6.20;4.63;;;0.70;99.90;;;;;;5030776;28;20181;-70
2023/12/02 04:25:19;;;;;;;7.83;4.67;;;0.70;99.90;;;;;;5039559;28;20182;-70
2023/12/02 04:27:47;;;;;;;5.50;4.10;;;0.80;99.90;;;;;;5035695;28;20177;-70
2023/12/02 04:30:16;;;;;;;4.80;3.87;;;0.80;99.90;;;;;;5036343;28;20264;-70
2023/12/02 04:32:41;;;;;;;5.70;4.57;;;0.80;99.90;;;;;;5037319;28;20193;-69
2023/12/02 04:35:12;;;;;;;6.30;4.53;;;0.90;99.90;;;;;;5063269;28;20174;-70
2023/12/02 04:37:41;;;;;;;6.67;5.23;;;0.90;99.90;;;;;;5028130;28;20177;-70
2023/12/02 04:40:12;;;;;;;6.63;4.80;;;1.00;99.90;;;;;;5040027;28;20264;-70
2023/12/02 04:42:39;;;;;;;5.43;4.33;;;0.90;99.90;;;;;;5035084;28;20268;-70
2023/12/02 04:45:10;;;;;;;5.67;4.13;;;0.90;99.90;;;;;;5064836;28;20240;-71
2023/12/02 04:47:36;;;;;;;6.63;4.13;;;0.90;99.90;;;;;;5030669;28;20216;-70
2023/12/02 04:50:08;;;;;;;5.60;4.57;;;0.90;99.90;;;;;;5067961;28;20209;-71
2023/12/02 04:52:33;;;;;;;6.07;4.33;;;0.90;99.90;;;;;;5072217;28;20193;-70
2023/12/02 04:54:59;;;;;;;5.27;4.20;;;0.90;99.90;;;;;;5039197;28;20246;-71
2023/12/02 04:57:28;;;;;;;6.13;4.27;;;0.90;99.90;;;;;;5073001;28;20211;-70
2023/12/02 04:59:53;;;;;;;6.03;4.47;;;0.90;99.90;;;;;;5032695;28;20174;-70
2023/12/02 05:02:21;;;;;;;5.70;4.50;;;0.90;99.90;;;;;;5037904;28;20212;-70
2023/12/02 05:04:47;;;;;;;6.57;4.53;;;0.90;99.90;;;;;;5074102;28;20324;-70
2023/12/02 05:07:14;;;;;;;6.03;4.83;;;0.90;99.90;;;;;;5070742;28;20217;-71
2023/12/02 05:09:46;;;;;;;6.83;5.10;;;0.90;99.90;;;;;;5041797;28;20216;-70
2023/12/02 05:12:12;;;;;;;6.67;4.90;;;0.90;99.90;;;;;;5033714;28;20205;-69
2023/12/02 05:14:40;;;;;;;6.40;4.97;;;0.80;99.90;;;;;;5021045;28;20216;-71
2023/12/02 05:17:08;;;;;;;6.17;4.97;;;0.80;99.90;;;;;;5034275;28;20208;-71
2023/12/02 05:19:34;;;;;;;5.93;4.53;;;0.80;99.90;;;;;;5051287;28;20195;-71
2023/12/02 05:21:59;;;;;;;7.00;4.97;;;0.80;99.90;;;;;;5051121;28;20193;-70
2023/12/02 05:24:30;;;;;;;5.47;4.37;;;0.80;99.90;;;;;;5068443;28;20196;-70
2023/12/02 05:26:58;;;;;;;6.27;5.07;;;0.80;99.90;;;;;;5024693;28;20193;-71
2023/12/02 05:29:24;;;;;;;5.50;4.27;;;0.80;99.90;;;;;;5040579;28;20217;-71
2023/12/02 05:31:51;;;;;;;5.60;4.37;;;0.80;99.90;;;;;;5055781;28;20185;-71
2023/12/02 05:34:17;;;;;;;6.40;4.63;;;0.80;99.90;;;;;;5038241;28;20231;-71
2023/12/02 05:36:47;;;;;;;5.97;4.63;;;0.80;99.90;;;;;;5043404;28;20283;-71
2023/12/02 05:39:15;;;;;;;6.57;4.77;;;0.80;99.90;;;;;;5070349;28;20217;-71
2023/12/02 05:41:42;;;;;;;6.07;4.73;;;0.80;99.90;;;;;;5049140;28;20205;-72
2023/12/02 05:44:10;;;;;;;6.60;4.70;;;0.80;99.90;;;;;;5037870;28;20260;-72
2023/12/02 05:46:39;;;;;;;8.20;5.50;;;0.90;99.90;;;;;;5039435;28;20177;-72
2023/12/02 05:49:05;;;;;;;6.70;5.13;;;0.80;99.90;;;;;;5039910;28;20229;-71
2023/12/02 05:51:30;;;;;;;6.60;4.90;;;0.80;99.90;;;;;;5038803;28;20178;-72
2023/12/02 05:53:56;;;;;;;7.03;5.17;;;0.80;99.90;;;;;;5045866;28;20197;-71
2023/12/02 05:56:22;;;;;;;6.17;4.67;;;0.80;99.90;;;;;;5037112;28;20185;-69
2023/12/02 05:58:50;;;;;;;6.53;4.57;;;0.80;99.90;;;;;;5039602;28;20202;-70
2023/12/02 06:01:22;;;;;;;7.00;5.27;;;0.80;99.90;;;;;;5034501;28;20204;-69
2023/12/02 06:03:48;;;;;;;6.87;5.43;;;0.80;99.90;;;;;;5065384;28;20261;-70
2023/12/02 06:06:14;;;;;;;6.80;5.00;;;0.80;99.90;;;;;;5037322;28;20476;-69
2023/12/02 06:08:40;;;;;;;7.43;5.20;;;0.90;99.90;;;;;;5037037;28;20205;-70
2023/12/02 06:11:06;;;;;;;6.30;4.80;;;0.90;99.90;;;;;;5035835;28;20206;-69
2023/12/02 06:13:33;;;;;;;6.40;4.93;;;0.90;99.90;;;;;;5031589;28;20212;-70
2023/12/02 06:16:01;;;;;;;8.07;5.23;;;0.90;99.90;;;;;;5034310;28;20252;-70
2023/12/02 06:18:32;;;;;;;7.23;5.10;;;1.00;99.90;;;;;;5038260;28;20208;-70
2023/12/02 06:21:00;;;;;;;7.10;5.40;;;1.00;99.90;;;;;;5036613;28;20259;-70
2023/12/02 06:23:25;;;;;;;7.17;4.90;;;1.00;99.90;;;;;;5039207;28;20201;-70
2023/12/02 06:25:53;;;;;;;6.43;4.93;;;1.00;99.90;;;;;;5034766;28;20173;-70
2023/12/02 06:28:20;;;;;;;6.37;5.23;;;1.10;99.90;;;;;;5042379;28;20235;-70
2023/12/02 06:30:45;;;;;;;6.83;5.33;;;1.10;99.90;;;;;;5067657;28;20178;-70
2023/12/02 06:33:11;;;;;;;7.03;5.30;;;1.10;99.90;;;;;;5040853;28;20181;-71
2023/12/02 06:35:39;;;;;;;7.27;5.47;;;1.10;99.90;;;;;;5062970;28;20198;-71
2023/12/02 06:38:05;;;;;;;6.97;5.33;;;1.10;99.90;;;;;;5048113;28;20264;-71
2023/12/02 06:40:33;;;;;;;9.00;6.10;;;1.10;99.90;;;;;;5048385;28;20239;-71
2023/12/02 06:42:58;;;;;;;8.90;6.73;;;1.10;99.90;;;;;;5037017;28;20169;-71
2023/12/02 06:45:24;;;;;;;8.17;5.80;;;1.10;99.90;;;;;;5038868;28;20260;-72
2023/12/02 06:47:52;;;;;;;6.83;5.40;;;1.10;99.90;;;;;;5039331;28;20185;-71
2023/12/02 06:50:21;;;;;;;6.73;5.03;;;1.10;99.90;;;;;;5071988;28;20208;-71
2023/12/02 06:52:53;;;;;;;6.50;5.10;;;1.10;99.90;;;;;;5038105;28;20201;-71
2023/12/02 06:55:18;;;;;;;6.13;4.70;;;1.10;99.90;;;;;;5037201;28;20197;-71
2023/12/02 06:57:44;;;;;;;8.43;4.97;;;1.10;99.90;;;;;;5029614;28;20184;-71
2023/12/02 07:00:13;;;;;;;7.90;5.87;;;1.10;99.90;;;;;;5037348;28;20189;-71
2023/12/02 07:02:40;;;;;;;6.67;4.77;;;1.10;99.90;;;;;;5037433;28;20177;-71
2023/12/02 07:05:06;;;;;;;5.93;4.63;;;1.10;99.90;;;;;;5038555;28;20212;-71
2023/12/02 07:07:32;;;;;;;6.20;4.97;;;1.10;99.90;;;;;;5037143;28;20185;-70
2023/12/02 07:09:57;;;;;;;6.03;4.80;;;1.10;99.90;;;;;;5036731;28;20213;-70
2023/12/02 07:12:25;;;;;;;7.00;5.27;;;1.00;99.90;;;;;;5037992;28;20177;-71
2023/12/02 07:14:51;;;;;;;6.23;5.03;;;1.00;99.90;;;;;;5034675;28;20204;-70
2023/12/02 07:17:17;;;;;;;5.93;4.90;;;1.00;99.90;;;;;;5038116;28;20178;-70
2023/12/02 07:19:42;;;;;;;7.47;5.17;;;1.00;99.90;;;;;;5037097;28;20196;-69
2023/12/02 07:22:08;;;;;;;7.40;5.00;;;1.00;99.90;;;;;;5039104;28;20181;-70
2023/12/02 07:24:33;;;;;;;6.10;4.40;;;1.00;99.90;;;;;;5054618;28;20185;-71
2023/12/02 07:26:59;;;;;;;6.47;4.83;;;1.00;99.90;;;;;;5037897;28;20231;-70
2023/12/02 07:29:27;;;;;;;6.73;5.10;;;1.10;99.90;;;;;;5031286;28;20280;-70
2023/12/02 07:31:55;;;;;;;5.50;4.70;;;1.10;99.90;;;;;;5035269;28;20181;-70
2023/12/02 07:34:21;;;;;;;6.13;4.57;;;1.10;99.90;;;;;;5037007;28;20272;-70
2023/12/02 07:36:48;;;;;;;5.47;4.33;;;1.10;99.90;;;;;;5036437;28;20288;-70
2023/12/02 07:39:16;;;;;;;6.20;4.90;;;1.10;99.90;;;;;;5034719;28;20177;-69
2023/12/02 07:41:45;;;;;;;5.90;4.20;;;1.20;99.90;;;;;;5033812;28;20206;-70
2023/12/02 07:44:11;;;;;;;6.73;5.07;;;1.20;99.90;;;;;;5043125;28;20223;-74
2023/12/02 07:46:39;;;;;;;6.13;4.90;;;1.20;99.90;;;;;;5037736;28;20200;-72
2023/12/02 07:49:05;;;;;;;6.83;5.20;;;1.20;99.90;;;;;;5029004;28;20201;-71
2023/12/02 07:51:30;;;;;;;6.30;5.03;;;1.20;99.90;;;;;;5036464;28;20319;-70
2023/12/02 07:53:58;;;;;;;13.33;9.50;;;1.30;99.90;;;;;;5037088;28;20216;-72
2023/12/02 07:56:28;;;;;;;10.50;7.03;;;1.30;99.90;;;;;;5035899;28;20177;-71
2023/12/02 07:58:56;;;;;;;8.63;5.97;;;1.40;99.90;;;;;;5047241;28;20181;-69
2023/12/02 08:01:24;;;;;;;9.23;6.63;;;1.40;99.90;;;;;;5037193;28;20178;-71
2023/12/02 08:03:50;;;;;;;7.47;5.40;;;1.40;99.90;;;;;;5043172;28;20245;-71
2023/12/02 08:06:15;;;;;;;7.20;5.47;;;1.40;99.90;;;;;;5034649;28;20251;-71
2023/12/02 08:08:43;;;;;;;7.33;5.47;;;1.40;99.90;;;;;;5045914;28;20258;-70
2023/12/02 08:11:11;;;;;;;6.77;4.97;;;1.50;99.90;;;;;;5038386;28;20197;-71
2023/12/02 08:13:39;;;;;;;6.83;5.00;;;1.50;99.90;;;;;;5040738;28;20264;-70
2023/12/02 08:16:04;;;;;;;6.73;5.13;;;1.50;99.90;;;;;;5038233;28;20177;-70
2023/12/02 08:18:30;;;;;;;6.33;4.87;;;1.50;99.90;;;;;;5041048;28;20196;-69
2023/12/02 08:20:58;;;;;;;6.57;5.07;;;1.50;99.90;;;;;;5041238;28;20264;-70
2023/12/02 08:23:23;;;;;;;6.70;4.90;;;1.50;99.90;;;;;;5039797;28;20201;-70
2023/12/02 08:25:52;;;;;;;6.73;5.20;;;1.50;99.90;;;;;;5052473;28;20192;-74
2023/12/02 08:28:23;;;;;;;6.87;5.23;;;1.50;99.90;;;;;;5043910;28;20212;-74
2023/12/02 08:30:48;;;;;;;8.47;5.33;;;1.40;99.90;;;;;;5040899;28;20178;-69
2023/12/02 08:33:16;;;;;;;6.67;5.27;;;1.40;99.90;;;;;;5040333;28;20184;-69
2023/12/02 08:35:44;;;;;;;6.60;5.07;;;1.40;99.90;;;;;;5040428;28;20200;-71
2023/12/02 08:38:10;;;;;;;6.87;5.40;;;1.40;99.90;;;;;;5041024;28;20197;-69
2023/12/02 08:40:39;;;;;;;7.90;5.63;;;1.40;99.90;;;;;;5039208;28;20280;-69
2023/12/02 08:43:09;;;;;;;6.70;4.83;;;1.40;99.90;;;;;;5040943;28;20234;-69
2023/12/02 08:45:37;;;;;;;6.27;5.00;;;1.30;99.90;;;;;;5041191;28;20446;-69
2023/12/02 08:48:03;;;;;;;5.70;4.50;;;1.30;99.90;;;;;;5037691;28;20263;-70
2023/12/02 08:50:28;;;;;;;6.67;4.97;;;1.30;99.90;;;;;;5041030;28;20177;-67
2023/12/02 08:52:54;;;;;;;8.47;5.90;;;1.40;99.90;;;;;;5025966;28;20197;-69
2023/12/02 08:55:19;;;;;;;7.20;5.30;;;1.30;99.90;;;;;;5023432;28;20167;-68
2023/12/02 08:57:45;;;;;;;6.17;5.00;;;1.30;99.90;;;;;;5040709;28;20177;-69
2023/12/02 09:00:11;;;;;;;6.43;5.20;;;1.30;99.90;;;;;;5042513;28;20226;-69
2023/12/02 09:02:37;;;;;;;6.97;5.10;;;1.30;99.90;;;;;;5044033;28;20189;-70
2023/12/02 09:05:05;;;;;;;6.67;5.07;;;1.30;99.90;;;;;;5039541;28;20213;-69
2023/12/02 09:07:33;;;;;;;6.90;5.07;;;1.40;99.90;;;;;;5057943;28;20178;-70
2023/12/02 09:10:01;;;;;;;6.00;4.63;;;1.30;99.90;;;;;;5036105;28;20205;-69
2023/12/02 09:12:27;;;;;;;6.17;4.87;;;1.30;99.90;;;;;;5040164;28;20166;-70
2023/12/02 09:15:14;;;;;;;6.97;5.23;;;1.40;99.90;;;;;;5040467;28;20184;-68
2023/12/02 09:17:48;;;;;;;7.27;5.40;;;1.40;99.90;;;;;;5053958;28;20213;-69
2023/12/02 09:20:40;;;;;;;7.60;5.77;;;1.40;99.90;;;;;;5057168;28;20180;-69
2023/12/02 09:23:08;;;;;;;6.93;5.10;;;1.40;99.90;;;;;;5060852;28;20319;-69
2023/12/02 09:25:44;;;;;;;7.17;5.20;;;1.50;99.90;;;;;;5039426;28;20182;-70
2023/12/02 09:28:10;;;;;;;8.17;6.33;;;1.40;99.90;;;;;;5035580;28;20280;-69
2023/12/02 09:30:40;;;;;;;8.07;5.93;;;1.40;99.90;;;;;;5039481;28;20184;-69
2023/12/02 09:33:06;;;;;;;8.93;6.73;;;1.40;99.90;;;;;;5042918;28;20247;-69
2023/12/02 09:35:33;;;;;;;8.23;6.13;;;1.50;99.90;;;;;;5038242;28;20185;-72
2023/12/02 09:38:00;;;;;;;8.40;6.33;;;1.50;99.90;;;;;;5037688;28;20185;-69
2023/12/02 09:40:53;;;;;;;8.47;6.03;;;1.50;99.90;;;;;;5039184;28;20197;-69
2023/12/02 09:43:39;;;;;;;7.80;6.10;;;1.50;99.90;;;;;;5059007;28;20185;-68
2023/12/02 09:46:35;;;;;;;7.97;6.33;;;1.60;99.90;;;;;;5025968;28;20300;-70
2023/12/02 09:49:09;;;;;;;8.10;5.77;;;1.60;99.90;;;;;;5019582;28;20205;-69
2023/12/02 09:52:13;;;;;;;9.23;6.77;;;1.60;99.90;;;;;;5032292;28;20169;-69
2023/12/02 09:55:00;;;;;;;9.40;6.87;;;1.60;99.90;;;;;;4942913;29;20183;-69
2023/12/02 09:58:00;;;;;;;8.87;6.60;;;1.70;99.90;;;;;;5024386;28;20219;-69
2023/12/02 10:00:41;;;;;;;8.13;5.83;;;1.70;99.90;;;;;;5072527;28;20203;-69
2023/12/02 10:03:31;;;;;;;7.63;5.60;;;1.70;99.90;;;;;;5038449;28;20166;-68
2023/12/02 10:06:15;;;;;;;8.70;6.30;;;1.70;99.90;;;;;;5072136;28;20165;-69
2023/12/02 10:09:16;;;;;;;7.73;5.60;;;1.70;99.90;;;;;;5064372;28;20288;-68
2023/12/02 10:12:22;;;;;;;7.40;5.67;;;1.70;99.90;;;;;;5052546;28;20541;-69
2023/12/02 10:14:59;;;;;;;7.40;5.83;;;1.70;99.90;;;;;;5068602;28;20177;-69
2023/12/02 10:17:30;;;;;;;7.87;5.80;;;1.70;99.90;;;;;;5019860;28;20205;-71
2023/12/02 10:20:01;;;;;;;9.33;6.80;;;1.70;99.90;;;;;;5055891;28;20169;-70
2023/12/02 10:22:32;;;;;;;7.90;6.00;;;1.70;99.90;;;;;;5050421;28;20201;-69
2023/12/02 10:25:05;;;;;;;8.50;5.90;;;1.70;99.90;;;;;;5037901;28;20232;-70
2023/12/02 10:27:36;;;;;;;8.97;6.17;;;1.70;99.90;;;;;;5026766;28;20181;-69
2023/12/02 10:30:09;;;;;;;9.10;6.33;;;1.80;99.90;;;;;;5059258;28;20193;-69
2023/12/02 10:33:05;;;;;;;7.70;5.87;;;1.80;99.90;;;;;;5035334;28;20244;-70
2023/12/02 10:35:46;;;;;;;8.13;5.90;;;1.80;99.90;;;;;;5037969;28;20485;-69
2023/12/02 10:38:22;;;;;;;7.93;6.00;;;1.80;99.90;;;;;;5038216;28;20273;-69
2023/12/02 10:40:59;;;;;;;8.67;6.20;;;1.80;99.90;;;;;;5069757;28;20189;-69
2023/12/02 10:43:44;;;;;;;8.83;5.93;;;1.90;99.90;;;;;;5035091;28;20177;-70
2023/12/02 10:46:14;;;;;;;7.90;6.33;;;1.80;99.90;;;;;;5034721;28;20208;-69
2023/12/02 10:48:40;;;;;;;9.43;6.43;;;1.80;99.90;;;;;;5018800;28;20484;-69
2023/12/02 10:51:13;;;;;;;8.30;6.63;;;1.90;99.90;;;;;;5069857;28;20208;-69
2023/12/02 10:53:41;;;;;;;8.20;6.67;;;1.90;99.90;;;;;;5018818;28;20178;-69
2023/12/02 10:56:20;;;;;;;9.40;6.70;;;1.90;99.90;;;;;;5024970;28;20256;-70
2023/12/02 10:58:48;;;;;;;8.97;6.67;;;1.80;99.90;;;;;;5038018;28;20193;-70
2023/12/02 11:01:20;;;;;;;10.40;6.90;;;1.80;99.90;;;;;;5038435;28;20220;-69
2023/12/02 11:03:59;;;;;;;8.33;6.23;;;1.80;99.90;;;;;;5038025;28;20197;-69
2023/12/02 11:06:32;;;;;;;8.27;6.00;;;1.80;99.90;;;;;;5037988;28;20181;-69
2023/12/02 11:09:14;;;;;;;8.73;6.53;;;1.80;99.90;;;;;;5026615;28;20194;-69
2023/12/02 11:11:46;;;;;;;10.43;7.17;;;1.80;99.90;;;;;;5045602;28;20173;-69
2023/12/02 11:14:20;;;;;;;8.83;6.73;;;1.80;99.90;;;;;;5049694;28;20179;-69
2023/12/02 11:17:06;;;;;;;9.77;6.87;;;1.90;99.90;;;;;;5021771;28;20192;-69
2023/12/02 11:19:41;;;;;;;8.90;6.27;;;1.90;99.90;;;;;;5037416;28;20204;-70
2023/12/02 11:22:41;;;;;;;10.20;6.60;;;1.80;99.90;;;;;;5034691;28;20212;-69
2023/12/02 11:25:33;;;;;;;8.63;5.97;;;1.90;99.90;;;;;;5063002;28;20239;-69
2023/12/02 11:28:22;;;;;;;8.60;5.70;;;1.90;99.90;;;;;;5040254;28;20232;-69
2023/12/02 11:30:48;;;;;;;9.00;6.07;;;1.90;99.90;;;;;;5034479;28;20185;-70
2023/12/02 11:33:41;;;;;;;10.03;7.23;;;2.00;99.90;;;;;;5071198;28;20161;-69
2023/12/02 11:36:21;;;;;;;9.53;7.03;;;2.00;99.90;;;;;;5064177;28;20201;-69
2023/12/02 11:39:08;;;;;;;9.40;6.80;;;1.90;99.90;;;;;;5022847;28;20173;-69
2023/12/02 11:41:56;;;;;;;9.67;6.83;;;2.00;99.90;;;;;;5045675;28;20204;-69
2023/12/02 11:44:42;;;;;;;10.43;7.13;;;1.90;99.90;;;;;;5054987;28;20329;-69
2023/12/02 11:47:39;;;;;;;10.43;7.73;;;1.90;99.90;;;;;;5039197;28;20193;-69
2023/12/02 11:50:23;;;;;;;10.80;7.30;;;1.90;99.90;;;;;;5075275;28;20197;-69
2023/12/02 11:53:01;;;;;;;10.23;7.27;;;1.90;99.90;;;;;;5063641;28;20193;-69
2023/12/02 11:56:04;;;;;;;9.73;6.50;;;1.90;99.90;;;;;;5041292;28;20169;-69
2023/12/02 11:58:51;;;;;;;8.93;6.10;;;1.90;99.90;;;;;;5067737;28;20212;-69
2023/12/02 12:01:33;;;;;;;9.57;7.03;;;1.90;99.90;;;;;;5048374;28;20188;-69
2023/12/02 12:04:24;;;;;;;10.67;7.40;;;1.90;99.90;;;;;;5062728;28;20339;-69
2023/12/02 12:07:27;;;;;;;9.77;6.63;;;1.90;99.90;;;;;;5073485;28;20196;-69
2023/12/02 12:10:20;;;;;;;9.80;6.70;;;2.00;99.90;;;;;;5074061;28;20209;-70
2023/12/02 12:12:55;;;;;;;9.23;6.50;;;1.90;99.90;;;;;;5074880;28;20245;-69
2023/12/02 12:15:23;;;;;;;10.40;7.37;;;1.90;99.90;;;;;;5041259;28;20201;-68
2023/12/02 12:17:49;;;;;;;9.33;6.53;;;1.90;99.90;;;;;;5040625;28;20173;-69
2023/12/02 12:20:24;;;;;;;11.17;7.23;;;1.90;99.90;;;;;;5072127;28;20170;-69
2023/12/02 12:22:50;;;;;;;9.90;7.13;;;1.90;99.90;;;;;;5076927;28;20180;-69
2023/12/02 12:25:15;;;;;;;10.37;6.73;;;1.90;99.90;;;;;;5041121;28;20179;-69
2023/12/02 12:27:41;;;;;;;10.83;7.67;;;2.00;99.90;;;;;;5062735;28;20206;-69
2023/12/02 12:30:08;;;;;;;10.97;7.47;;;2.00;99.90;;;;;;5040222;28;20193;-69
2023/12/02 12:32:37;;;;;;;10.80;7.40;;;2.00;99.90;;;;;;5040721;28;20265;-69
2023/12/02 12:35:16;;;;;;;10.13;6.93;;;2.00;99.90;;;;;;5029455;28;20177;-69
2023/12/02 12:37:42;;;;;;;10.80;7.57;;;2.00;99.90;;;;;;5069551;28;20185;-69
2023/12/02 12:40:12;;;;;;;10.70;7.27;;;2.00;99.90;;;;;;5038956;28;20204;-69
2023/12/02 12:42:52;;;;;;;9.93;7.10;;;2.00;99.90;;;;;;5035481;28;20174;-69
2023/12/02 12:45:21;;;;;;;9.67;6.80;;;2.00;99.90;;;;;;5038023;28;20201;-69
2023/12/02 12:47:47;;;;;;;8.90;6.30;;;2.00;99.90;;;;;;5035831;28;20178;-69
2023/12/02 12:50:14;;;;;;;10.23;6.73;;;2.00;99.90;;;;;;5037528;28;20208;-69
2023/12/02 12:52:48;;;;;;;9.43;7.27;;;2.00;99.90;;;;;;5030426;28;20181;-69
2023/12/02 12:55:24;;;;;;;8.97;6.43;;;2.00;99.90;;;;;;5050004;28;20180;-69
2023/12/02 12:58:11;;;;;;;9.97;6.90;;;2.10;99.90;;;;;;5039138;28;20231;-70
2023/12/02 13:00:39;;;;;;;12.07;8.00;;;2.10;99.90;;;;;;5038345;28;20173;-69
2023/12/02 13:03:35;;;;;;;10.97;7.67;;;2.00;99.90;;;;;;5045055;28;20193;-69
2023/12/02 13:06:33;;;;;;;9.93;7.10;;;2.10;99.90;;;;;;5072505;28;20231;-69
2023/12/02 13:09:11;;;;;;;11.03;7.10;;;2.10;99.90;;;;;;5052339;28;20215;-69
2023/12/02 13:11:59;;;;;;;8.70;6.70;;;2.00;99.90;;;;;;5027825;28;20187;-69